createdAt,value
2018-11-21T00:00:34.333Z,99533.00
2018-11-21T00:03:04.192Z,99533.00
2018-11-21T00:05:33.828Z,99535.00
2018-11-21T00:08:04.584Z,99545.00
2018-11-21T00:10:34.116Z,99543.00
2018-11-21T00:13:03.980Z,99528.00
2018-11-21T00:15:33.436Z,99536.00
2018-11-21T00:18:04.643Z,99528.00
2018-11-21T00:20:35.129Z,99518.00
2018-11-21T00:23:05.065Z,99524.00
2018-11-21T00:25:38.022Z,99524.00
2018-11-21T00:28:09.045Z,99531.00
2018-11-21T00:30:38.954Z,99542.00
2018-11-21T00:33:09.265Z,99537.00
2018-11-21T00:35:42.606Z,99540.00
2018-11-21T00:38:12.843Z,99548.00
2018-11-21T00:40:42.845Z,99543.00
2018-11-21T00:43:13.010Z,99545.00
2018-11-21T00:45:43.253Z,99552.00
2018-11-21T00:48:14.190Z,99543.00
2018-11-21T00:50:46.153Z,99552.00
2018-11-21T00:53:23.328Z,99550.00
2018-11-21T00:55:53.511Z,99553.00
2018-11-21T00:58:27.682Z,99552.00
2018-11-21T01:00:57.306Z,99557.00
2018-11-21T01:03:26.910Z,99557.00
2018-11-21T01:05:56.879Z,99551.00
2018-11-21T01:08:27.541Z,99561.00
2018-11-21T01:10:57.393Z,99565.00
2018-11-21T01:13:27.014Z,99566.00
2018-11-21T01:15:57.333Z,99563.00
2018-11-21T01:18:28.137Z,99564.00
2018-11-21T01:20:59.670Z,99557.00
2018-11-21T01:23:31.901Z,99572.00
2018-11-21T01:26:02.204Z,99551.00
2018-11-21T01:28:31.782Z,99563.00
2018-11-21T01:31:04.892Z,99566.00
2018-11-21T01:33:34.687Z,99554.00
2018-11-21T01:36:05.213Z,99554.00
2018-11-21T01:38:34.910Z,99562.00
2018-11-21T01:41:07.703Z,99563.00
2018-11-21T01:43:37.623Z,99556.00
2018-11-21T01:46:08.519Z,99567.00
2018-11-21T01:48:39.532Z,99564.00
2018-11-21T01:51:08.990Z,99560.00
2018-11-21T01:53:44.320Z,99573.00
2018-11-21T01:56:13.863Z,99572.00
2018-11-21T01:58:43.468Z,99565.00
2018-11-21T02:01:13.574Z,99556.00
2018-11-21T02:03:43.567Z,99567.00
2018-11-21T02:06:13.058Z,99557.00
2018-11-21T02:08:43.004Z,99564.00
2018-11-21T02:11:15.076Z,99557.00
2018-11-21T02:13:44.709Z,99566.00
2018-11-21T02:16:14.758Z,99564.00
2018-11-21T02:18:44.365Z,99571.00
2018-11-21T02:21:14.266Z,99567.00
2018-11-21T02:23:45.047Z,99570.00
2018-11-21T02:26:22.093Z,99563.00
2018-11-21T02:28:52.006Z,99564.00
2018-11-21T02:31:21.766Z,99557.00
2018-11-21T02:33:51.427Z,99568.00
2018-11-21T02:36:20.926Z,99565.00
2018-11-21T02:38:52.532Z,99557.00
2018-11-21T02:41:22.552Z,99567.00
2018-11-21T02:43:52.318Z,99561.00
2018-11-21T02:46:22.412Z,99560.00
2018-11-21T02:48:52.079Z,99546.00
2018-11-21T02:51:22.474Z,99564.00
2018-11-21T02:53:52.449Z,99555.00
2018-11-21T02:56:22.754Z,99571.00
2018-11-21T02:58:52.403Z,99573.00
2018-11-21T03:01:25.141Z,99563.00
2018-11-21T03:03:55.884Z,99576.00
2018-11-21T03:06:26.604Z,99581.00
2018-11-21T03:08:58.309Z,99574.00
2018-11-21T03:11:28.531Z,99567.00
2018-11-21T03:13:57.993Z,99586.00
2018-11-21T03:16:27.680Z,99586.00
2018-11-21T03:18:58.238Z,99573.00
2018-11-21T03:21:27.645Z,99580.00
2018-11-21T03:23:57.685Z,99574.00
2018-11-21T03:26:27.685Z,99584.00
2018-11-21T03:28:57.803Z,99585.00
2018-11-21T03:31:27.665Z,99587.00
2018-11-21T03:33:57.849Z,99591.00
2018-11-21T03:36:27.030Z,99583.00
2018-11-21T03:39:00.689Z,99585.00
2018-11-21T03:41:30.861Z,99593.00
2018-11-21T03:44:01.767Z,99583.00
2018-11-21T03:46:31.573Z,99595.00
2018-11-21T03:49:01.652Z,99585.00
2018-11-21T03:51:34.466Z,99576.00
2018-11-21T03:54:05.739Z,99588.00
2018-11-21T03:56:37.292Z,99584.00
2018-11-21T03:59:10.578Z,99588.00
2018-11-21T04:01:40.922Z,99594.00
2018-11-21T04:04:12.176Z,99590.00
2018-11-21T04:06:43.189Z,99582.00
2018-11-21T04:09:13.541Z,99583.00
2018-11-21T04:11:44.157Z,99598.00
2018-11-21T04:14:24.493Z,99595.00
2018-11-21T04:16:58.549Z,99598.00
2018-11-21T04:19:28.203Z,99607.00
2018-11-21T04:21:58.552Z,99597.00
2018-11-21T04:24:29.345Z,99604.00
2018-11-21T04:26:59.062Z,99601.00
2018-11-21T04:29:28.949Z,99611.00
2018-11-21T04:31:58.604Z,99612.00
2018-11-21T04:34:28.292Z,99606.00
2018-11-21T04:36:58.364Z,99604.00
2018-11-21T04:39:28.256Z,99615.00
2018-11-21T04:41:58.607Z,99620.00
2018-11-21T04:44:28.634Z,99611.00
2018-11-21T04:46:58.815Z,99621.00
2018-11-21T04:49:28.582Z,99627.00
2018-11-21T04:51:58.588Z,99622.00
2018-11-21T04:54:28.374Z,99628.00
2018-11-21T04:56:58.353Z,99625.00
2018-11-21T04:59:27.902Z,99628.00
2018-11-21T05:01:59.837Z,99629.00
2018-11-21T05:04:29.786Z,99631.00
2018-11-21T05:06:59.179Z,99627.00
2018-11-21T05:09:28.729Z,99635.00
2018-11-21T05:11:58.312Z,99637.00
2018-11-21T05:14:28.091Z,99646.00
2018-11-21T05:16:58.643Z,99642.00
2018-11-21T05:19:29.559Z,99644.00
2018-11-21T05:21:59.687Z,99642.00
2018-11-21T05:24:32.987Z,99637.00
2018-11-21T05:27:02.637Z,99637.00
2018-11-21T05:29:32.170Z,99640.00
2018-11-21T05:32:01.658Z,99647.00
2018-11-21T05:34:32.468Z,99648.00
2018-11-21T05:37:03.289Z,99634.00
2018-11-21T05:39:33.521Z,99657.00
2018-11-21T05:42:03.264Z,99661.00
2018-11-21T05:44:33.402Z,99666.00
2018-11-21T05:47:03.214Z,99658.00
2018-11-21T05:49:35.099Z,99665.00
2018-11-21T05:52:03.789Z,99664.00
2018-11-21T05:54:33.394Z,99668.00
2018-11-21T05:57:03.024Z,99678.00
2018-11-21T05:59:32.939Z,99676.00
2018-11-21T06:02:02.531Z,99683.00
2018-11-21T06:04:32.829Z,99679.00
2018-11-21T06:07:02.243Z,99685.00
2018-11-21T06:09:31.908Z,99660.00
2018-11-21T06:12:04.409Z,99691.00
2018-11-21T06:14:31.886Z,99679.00
2018-11-21T06:17:04.421Z,99696.00
2018-11-21T06:19:33.915Z,99700.00
2018-11-21T06:22:03.574Z,99690.00
2018-11-21T06:24:34.334Z,99693.00
2018-11-21T06:27:06.260Z,99692.00
2018-11-21T06:29:36.109Z,99702.00
2018-11-21T06:32:08.980Z,99704.00
2018-11-21T06:34:43.589Z,99700.00
2018-11-21T06:37:13.790Z,99698.00
2018-11-21T06:39:44.049Z,99704.00
2018-11-21T06:42:13.930Z,99696.00
2018-11-21T06:44:44.761Z,99695.00
2018-11-21T06:47:14.624Z,99710.00
2018-11-21T06:49:44.470Z,99706.00
2018-11-21T06:52:22.091Z,99715.00
2018-11-21T06:54:45.616Z,99717.00
2018-11-21T06:57:15.878Z,99719.00
2018-11-21T06:59:45.435Z,99728.00
2018-11-21T07:02:15.327Z,99734.00
2018-11-21T07:04:45.033Z,99734.00
2018-11-21T07:07:14.998Z,99733.00
2018-11-21T07:09:45.997Z,99745.00
2018-11-21T07:12:15.360Z,99744.00
2018-11-21T07:14:44.754Z,99744.00
2018-11-21T07:17:14.929Z,99739.00
2018-11-21T07:19:44.490Z,99740.00
2018-11-21T07:22:17.846Z,99745.00
2018-11-21T07:24:50.764Z,99750.00
2018-11-21T07:27:22.729Z,99746.00
2018-11-21T07:29:52.828Z,99756.00
2018-11-21T07:32:29.491Z,99747.00
2018-11-21T07:34:59.087Z,99758.00
2018-11-21T07:37:29.029Z,99753.00
2018-11-21T07:39:58.539Z,99757.00
2018-11-21T07:42:30.757Z,99765.00
2018-11-21T07:45:00.573Z,99769.00
2018-11-21T07:47:32.496Z,99758.00
2018-11-21T07:50:06.349Z,99775.00
2018-11-21T07:52:36.952Z,99771.00
2018-11-21T07:55:07.714Z,99767.00
2018-11-21T07:57:48.371Z,99774.00
2018-11-21T08:00:56.280Z,99786.00
2018-11-21T08:03:29.263Z,99778.00
2018-11-21T08:06:01.092Z,99785.00
2018-11-21T08:08:48.230Z,99785.00
2018-11-21T08:11:39.534Z,99788.00
2018-11-21T08:14:40.393Z,99791.00
2018-11-21T08:17:20.198Z,99790.00
2018-11-21T08:20:14.703Z,99799.00
2018-11-21T08:22:54.727Z,99796.00
2018-11-21T08:25:48.908Z,99805.00
2018-11-21T08:28:31.371Z,99810.00
2018-11-21T08:31:00.822Z,99806.00
2018-11-21T08:33:34.081Z,99819.00
2018-11-21T08:36:01.054Z,99824.00
2018-11-21T08:38:30.546Z,99830.00
2018-11-21T08:41:00.070Z,99825.00
2018-11-21T08:43:29.432Z,99828.00
2018-11-21T08:46:01.066Z,99826.00
2018-11-21T08:48:30.452Z,99821.00
2018-11-21T08:50:59.885Z,99831.00
2018-11-21T08:53:29.191Z,99825.00
2018-11-21T08:55:58.591Z,99828.00
2018-11-21T08:58:27.942Z,99832.00
2018-11-21T09:00:57.330Z,99827.00
2018-11-21T09:03:26.590Z,99829.00
2018-11-21T09:05:56.001Z,99827.00
2018-11-21T09:08:25.889Z,99831.00
2018-11-21T09:10:55.318Z,99829.00
2018-11-21T09:13:24.656Z,99833.00
2018-11-21T09:15:54.036Z,99828.00
2018-11-21T09:18:23.434Z,99834.00
2018-11-21T09:20:52.812Z,99840.00
2018-11-21T09:23:22.192Z,99828.00
2018-11-21T09:25:51.615Z,99845.00
2018-11-21T09:28:20.922Z,99846.00
2018-11-21T09:30:50.245Z,99851.00
2018-11-21T09:33:19.599Z,99843.00
2018-11-21T09:35:49.064Z,99852.00
2018-11-21T09:38:18.384Z,99866.00
2018-11-21T09:40:47.697Z,99862.00
2018-11-21T09:43:17.037Z,99855.00
2018-11-21T09:45:46.406Z,99857.00
2018-11-21T09:48:15.760Z,99850.00
2018-11-21T09:50:45.168Z,99852.00
2018-11-21T09:53:14.640Z,99854.00
2018-11-21T09:55:44.082Z,99856.00
2018-11-21T09:58:13.507Z,99858.00
2018-11-21T10:01:47.863Z,99858.00
2018-11-21T10:04:17.241Z,99865.00
2018-11-21T10:06:47.056Z,99864.00
2018-11-21T10:09:22.289Z,99864.00
2018-11-21T10:11:51.658Z,99858.00
2018-11-21T10:14:21.002Z,99858.00
2018-11-21T10:16:50.358Z,99866.00
2018-11-21T10:19:19.720Z,99867.00
2018-11-21T10:21:49.350Z,99863.00
2018-11-21T10:24:18.839Z,99870.00
2018-11-21T10:26:48.289Z,99858.00
2018-11-21T10:29:17.828Z,99861.00
2018-11-21T10:31:47.169Z,99857.00
2018-11-21T10:34:16.500Z,99851.00
2018-11-21T10:36:45.816Z,99857.00
2018-11-21T10:39:15.187Z,99854.00
2018-11-21T10:41:44.497Z,99851.00
2018-11-21T10:44:13.959Z,99847.00
2018-11-21T10:46:43.290Z,99862.00
2018-11-21T10:49:12.650Z,99859.00
2018-11-21T10:51:41.997Z,99855.00
2018-11-21T10:54:11.846Z,99870.00
2018-11-21T10:56:41.713Z,99864.00
2018-11-21T10:59:11.095Z,99871.00
2018-11-21T11:01:57.929Z,99875.00
2018-11-21T11:04:52.473Z,99867.00
2018-11-21T11:07:55.814Z,99864.00
2018-11-21T11:10:38.793Z,99866.00
2018-11-21T11:13:25.764Z,99873.00
2018-11-21T11:16:17.059Z,99871.00
2018-11-21T11:19:20.824Z,99882.00
2018-11-21T11:22:08.004Z,99863.00
2018-11-21T11:25:14.547Z,99873.00
2018-11-21T11:28:08.855Z,99865.00
2018-11-21T11:30:48.262Z,99867.00
2018-11-21T11:33:35.138Z,99875.00
2018-11-21T11:36:21.629Z,99876.00
2018-11-21T11:39:16.060Z,99867.00
2018-11-21T11:42:03.379Z,99868.00
2018-11-21T11:44:51.131Z,99872.00
2018-11-21T11:47:31.964Z,99881.00
2018-11-21T11:50:23.224Z,99873.00
2018-11-21T11:53:10.642Z,99884.00
2018-11-21T11:55:59.178Z,99872.00
2018-11-21T11:58:35.913Z,99889.00
2018-11-21T12:01:23.266Z,99875.00
2018-11-21T12:04:10.739Z,99883.00
2018-11-21T12:06:53.272Z,99887.00
2018-11-21T12:09:50.398Z,99885.00
2018-11-21T12:12:40.117Z,99888.00
2018-11-21T12:15:28.745Z,99882.00
2018-11-21T12:18:15.716Z,99879.00
2018-11-21T12:20:57.317Z,99868.00
2018-11-21T12:23:54.665Z,99855.00
2018-11-21T12:26:45.704Z,99861.00
2018-11-21T12:29:35.252Z,99858.00
2018-11-21T12:32:22.435Z,99864.00
2018-11-21T12:35:13.487Z,99865.00
2018-11-21T12:38:00.809Z,99865.00
2018-11-21T12:40:50.803Z,99863.00
2018-11-21T12:43:28.622Z,99869.00
2018-11-21T12:46:32.156Z,99861.00
2018-11-21T12:49:26.538Z,99857.00
2018-11-21T12:52:26.815Z,99857.00
2018-11-21T12:55:23.877Z,99863.00
2018-11-21T12:58:17.266Z,99861.00
2018-11-21T13:01:04.332Z,99857.00
2018-11-21T13:03:51.308Z,99866.00
2018-11-21T13:06:38.398Z,99860.00
2018-11-21T13:09:27.700Z,99861.00
2018-11-21T13:12:15.519Z,99862.00
2018-11-21T13:15:09.468Z,99867.00
2018-11-21T13:17:54.119Z,99872.00
2018-11-21T13:20:42.568Z,99868.00
2018-11-21T13:23:40.177Z,99871.00
2018-11-21T13:26:26.072Z,99878.00
2018-11-21T13:29:29.693Z,99868.00
2018-11-21T13:32:36.496Z,99872.00
2018-11-21T13:35:35.061Z,99872.00
2018-11-21T13:38:16.041Z,99874.00
2018-11-21T13:40:57.512Z,99879.00
2018-11-21T13:43:48.530Z,99880.00
2018-11-21T13:46:35.665Z,99880.00
2018-11-21T13:49:23.275Z,99878.00
2018-11-21T13:52:10.375Z,99887.00
2018-11-21T13:54:58.756Z,99886.00
2018-11-21T13:57:28.749Z,99890.00
2018-11-21T13:59:58.285Z,99891.00
2018-11-21T14:02:27.694Z,99899.00
2018-11-21T14:04:57.360Z,99892.00
2018-11-21T14:07:27.681Z,99890.00
2018-11-21T14:09:57.014Z,99889.00
2018-11-21T14:12:26.505Z,99896.00
2018-11-21T14:14:55.873Z,99903.00
2018-11-21T14:17:27.760Z,99900.00
2018-11-21T14:19:54.546Z,99910.00
2018-11-21T14:22:23.952Z,99904.00
2018-11-21T14:24:53.294Z,99908.00
2018-11-21T14:27:22.662Z,99905.00
2018-11-21T14:29:52.033Z,99900.00
2018-11-21T14:32:21.489Z,99903.00
2018-11-21T14:34:50.867Z,99897.00
2018-11-21T14:37:20.420Z,99894.00
2018-11-21T14:39:49.841Z,99903.00
2018-11-21T14:42:19.360Z,99911.00
2018-11-21T14:44:48.687Z,99906.00
2018-11-21T14:47:18.043Z,99911.00
2018-11-21T14:49:53.181Z,99906.00
2018-11-21T14:52:22.550Z,99901.00
2018-11-21T14:54:51.879Z,99903.00
2018-11-21T14:57:21.251Z,99910.00
2018-11-21T14:59:50.601Z,99928.00
2018-11-21T15:02:20.002Z,99915.00
2018-11-21T15:04:49.419Z,99916.00
2018-11-21T15:07:18.834Z,99920.00
2018-11-21T15:09:48.190Z,99925.00
2018-11-21T15:12:17.496Z,99929.00
2018-11-21T15:14:46.879Z,99919.00
2018-11-21T15:17:16.254Z,99926.00
2018-11-21T15:19:45.736Z,99925.00
2018-11-21T15:22:15.095Z,99930.00
2018-11-21T15:24:44.477Z,99929.00
2018-11-21T15:27:13.978Z,99932.00
2018-11-21T15:29:43.435Z,99925.00
2018-11-21T15:32:12.785Z,99924.00
2018-11-21T15:34:42.200Z,99933.00
2018-11-21T15:37:11.582Z,99929.00
2018-11-21T15:39:43.520Z,99929.00
2018-11-21T15:42:13.291Z,99943.00
2018-11-21T15:44:42.764Z,99937.00
2018-11-21T15:47:12.028Z,99939.00
2018-11-21T15:49:41.426Z,99935.00
2018-11-21T15:52:10.795Z,99949.00
2018-11-21T15:54:40.179Z,99948.00
2018-11-21T15:57:09.517Z,99942.00
2018-11-21T15:59:38.856Z,99944.00
2018-11-21T16:02:08.248Z,99950.00
2018-11-21T16:04:37.591Z,99953.00
2018-11-21T16:07:07.121Z,99948.00
2018-11-21T16:09:36.447Z,99955.00
2018-11-21T16:12:05.974Z,99951.00
2018-11-21T16:14:35.362Z,99967.00
2018-11-21T16:17:04.765Z,99967.00
2018-11-21T16:19:34.164Z,99964.00
2018-11-21T16:22:03.549Z,99965.00
2018-11-21T16:24:32.957Z,99971.00
2018-11-21T16:27:02.325Z,99969.00
2018-11-21T16:29:36.778Z,99968.00
2018-11-21T16:32:01.033Z,99973.00
2018-11-21T16:34:30.423Z,99988.00
2018-11-21T16:36:59.773Z,99991.00
2018-11-21T16:39:29.148Z,99983.00
2018-11-21T16:41:58.478Z,99987.00
2018-11-21T16:44:27.839Z,99984.00
2018-11-21T16:46:57.187Z,99983.00
2018-11-21T16:49:26.727Z,99982.00
2018-11-21T16:51:56.232Z,99978.00
2018-11-21T16:54:25.586Z,99989.00
2018-11-21T16:56:54.918Z,99990.00
2018-11-21T16:59:24.862Z,99984.00
2018-11-21T17:01:54.340Z,99992.00
2018-11-21T17:04:23.773Z,99979.00
2018-11-21T17:06:53.248Z,99994.00
2018-11-21T17:09:22.636Z,99992.00
2018-11-21T17:11:51.969Z,99997.00
2018-11-21T17:14:21.459Z,100002.00
2018-11-21T17:16:50.793Z,99998.00
2018-11-21T17:19:20.135Z,100003.00
2018-11-21T17:21:50.400Z,99999.00
2018-11-21T17:24:19.776Z,100002.00
2018-11-21T17:26:49.420Z,99990.00
2018-11-21T17:29:18.785Z,100008.00
2018-11-21T17:31:48.208Z,99997.00
2018-11-21T17:34:17.571Z,100001.00
2018-11-21T17:36:46.965Z,100001.00
2018-11-21T17:39:16.590Z,100005.00
2018-11-21T17:41:45.933Z,100005.00
2018-11-21T17:44:15.777Z,100001.00
2018-11-21T17:46:45.238Z,100011.00
2018-11-21T17:49:14.562Z,100013.00
2018-11-21T17:51:43.911Z,100019.00
2018-11-21T17:54:13.377Z,100010.00
2018-11-21T17:56:42.663Z,100018.00
2018-11-21T17:59:12.015Z,100029.00
2018-11-21T18:01:41.363Z,100028.00
2018-11-21T18:04:10.732Z,100025.00
2018-11-21T18:06:40.113Z,100021.00
2018-11-21T18:09:13.334Z,100020.00
2018-11-21T18:11:42.867Z,100026.00
